sensor_id;sensor_type;location;lat;lon;timestamp;pressure;altitude;pressure_sealevel;temperature;humidity
17383;BME280;8809;51.892;8.384;2023-04-27T00:01:17;100971.38;;;6.10;100.00
17383;BME280;8809;51.892;8.384;2023-04-27T00:03:44;100976.44;;;6.08;100.00
17383;BME280;8809;51.892;8.384;2023-04-27T00:06:11;100970.25;;;6.06;100.00
17383;BME280;8809;51.892;8.384;2023-04-27T00:08:39;100975.25;;;6.03;100.00
17383;BME280;8809;51.892;8.384;2023-04-27T00:11:06;100976.84;;;6.01;100.00
17383;BME280;8809;51.892;8.384;2023-04-27T00:13:33;100970.66;;;5.99;100.00
17383;BME280;8809;51.892;8.384;2023-04-27T00:16:00;100973.94;;;5.96;100.00
17383;BME280;8809;51.892;8.384;2023-04-27T00:18:29;100972.97;;;5.94;100.00
17383;BME280;8809;51.892;8.384;2023-04-27T00:20:58;100978.84;;;5.92;100.00
17383;BME280;8809;51.892;8.384;2023-04-27T00:23:25;100971.75;;;5.89;100.00
17383;BME280;8809;51.892;8.384;2023-04-27T00:25:52;100971.66;;;5.88;100.00
17383;BME280;8809;51.892;8.384;2023-04-27T00:28:19;100970.63;;;5.86;100.00
17383;BME280;8809;51.892;8.384;2023-04-27T00:30:47;100965.25;;;5.83;100.00
17383;BME280;8809;51.892;8.384;2023-04-27T00:33:16;100974.69;;;5.82;100.00
17383;BME280;8809;51.892;8.384;2023-04-27T00:35:44;100969.31;;;5.79;100.00
17383;BME280;8809;51.892;8.384;2023-04-27T00:38:11;100974.38;;;5.78;100.00
17383;BME280;8809;51.892;8.384;2023-04-27T00:40:38;100979.50;;;5.76;100.00
17383;BME280;8809;51.892;8.384;2023-04-27T00:43:05;100976.78;;;5.75;100.00
17383;BME280;8809;51.892;8.384;2023-04-27T00:45:36;100978.38;;;5.73;100.00
17383;BME280;8809;51.892;8.384;2023-04-27T00:48:07;100973.09;;;5.71;100.00
17383;BME280;8809;51.892;8.384;2023-04-27T00:50:35;100978.94;;;5.69;100.00
17383;BME280;8809;51.892;8.384;2023-04-27T00:53:05;100977.97;;;5.67;100.00
17383;BME280;8809;51.892;8.384;2023-04-27T00:55:32;100983.84;;;5.64;100.00
17383;BME280;8809;51.892;8.384;2023-04-27T00:57:59;100981.16;;;5.63;100.00
17383;BME280;8809;51.892;8.384;2023-04-27T01:00:26;100984.53;;;5.62;100.00
17383;BME280;8809;51.892;8.384;2023-04-27T01:02:54;100987.91;;;5.60;100.00
17383;BME280;8809;51.892;8.384;2023-04-27T01:05:21;100989.47;;;5.58;100.00
17383;BME280;8809;51.892;8.384;2023-04-27T01:07:49;100993.75;;;5.58;100.00
17383;BME280;8809;51.892;8.384;2023-04-27T01:10:17;101004.03;;;5.56;100.00
17383;BME280;8809;51.892;8.384;2023-04-27T01:12:44;100997.84;;;5.54;100.00
17383;BME280;8809;51.892;8.384;2023-04-27T01:15:11;101003.03;;;5.54;100.00
17383;BME280;8809;51.892;8.384;2023-04-27T01:17:38;101001.22;;;5.53;100.00
17383;BME280;8809;51.892;8.384;2023-04-27T01:20:07;101001.22;;;5.53;100.00
17383;BME280;8809;51.892;8.384;2023-04-27T01:22:34;101008.88;;;5.52;100.00
17383;BME280;8809;51.892;8.384;2023-04-27T01:25:03;101010.56;;;5.51;100.00
17383;BME280;8809;51.892;8.384;2023-04-27T01:27:31;101020.81;;;5.50;100.00
17383;BME280;8809;51.892;8.384;2023-04-27T01:29:58;101020.81;;;5.50;100.00
17383;BME280;8809;51.892;8.384;2023-04-27T01:32:25;101026.00;;;5.50;100.00
17383;BME280;8809;51.892;8.384;2023-04-27T01:34:52;101024.31;;;5.50;100.00
17383;BME280;8809;51.892;8.384;2023-04-27T01:37:19;101032.84;;;5.49;100.00
17383;BME280;8809;51.892;8.384;2023-04-27T01:39:46;101032.84;;;5.49;100.00
17383;BME280;8809;51.892;8.384;2023-04-27T01:42:15;101031.06;;;5.48;100.00
17383;BME280;8809;51.892;8.384;2023-04-27T01:44:42;101034.53;;;5.49;100.00
17383;BME280;8809;51.892;8.384;2023-04-27T01:47:09;101037.06;;;5.47;100.00
17383;BME280;8809;51.892;8.384;2023-04-27T01:49:36;101037.84;;;5.46;100.00
17383;BME280;8809;51.892;8.384;2023-04-27T01:52:03;101043.91;;;5.47;100.00
17383;BME280;8809;51.892;8.384;2023-04-27T01:54:30;101041.31;;;5.47;100.00
17383;BME280;8809;51.892;8.384;2023-04-27T01:56:57;101045.59;;;5.46;100.00
17383;BME280;8809;51.892;8.384;2023-04-27T01:59:28;101046.38;;;5.45;100.00
17383;BME280;8809;51.892;8.384;2023-04-27T02:01:55;101048.97;;;5.45;100.00
17383;BME280;8809;51.892;8.384;2023-04-27T02:04:22;101048.88;;;5.44;100.00
17383;BME280;8809;51.892;8.384;2023-04-27T02:06:49;101043.59;;;5.42;100.00
17383;BME280;8809;51.892;8.384;2023-04-27T02:09:16;101052.13;;;5.41;100.00
17383;BME280;8809;51.892;8.384;2023-04-27T02:11:43;101049.44;;;5.40;100.00
17383;BME280;8809;51.892;8.384;2023-04-27T02:14:10;101051.13;;;5.39;100.00
17383;BME280;8809;51.892;8.384;2023-04-27T02:16:39;101053.63;;;5.38;100.00
17383;BME280;8809;51.892;8.384;2023-04-27T02:19:06;101051.72;;;5.35;100.00
17383;BME280;8809;51.892;8.384;2023-04-27T02:21:33;101047.34;;;5.34;100.00
17383;BME280;8809;51.892;8.384;2023-04-27T02:24:00;101054.97;;;5.33;100.00
17383;BME280;8809;51.892;8.384;2023-04-27T02:26:27;101054.88;;;5.31;100.00
17383;BME280;8809;51.892;8.384;2023-04-27T02:28:55;101049.59;;;5.30;100.00
17383;BME280;8809;51.892;8.384;2023-04-27T02:31:22;101058.06;;;5.27;100.00
17383;BME280;8809;51.892;8.384;2023-04-27T02:33:51;101051.09;;;5.26;100.00
17383;BME280;8809;51.892;8.384;2023-04-27T02:36:18;101051.75;;;5.23;100.00
17383;BME280;8809;51.892;8.384;2023-04-27T02:38:45;101046.47;;;5.22;100.00
17383;BME280;8809;51.892;8.384;2023-04-27T02:41:12;101047.25;;;5.21;100.00
17383;BME280;8809;51.892;8.384;2023-04-27T02:43:39;101050.56;;;5.18;100.00
17383;BME280;8809;51.892;8.384;2023-04-27T02:46:06;101054.72;;;5.16;100.00
17383;BME280;8809;51.892;8.384;2023-04-27T02:48:34;101051.78;;;5.12;100.00
17383;BME280;8809;51.892;8.384;2023-04-27T02:51:04;101045.59;;;5.10;100.00
17383;BME280;8809;51.892;8.384;2023-04-27T02:53:31;101037.66;;;5.07;100.00
17383;BME280;8809;51.892;8.384;2023-04-27T02:55:58;101047.78;;;5.04;100.00
17383;BME280;8809;51.892;8.384;2023-04-27T02:58:25;101044.97;;;5.01;100.00
17383;BME280;8809;51.892;8.384;2023-04-27T03:00:53;101042.97;;;4.97;100.00
17383;BME280;8809;51.892;8.384;2023-04-27T03:03:21;101045.34;;;4.94;100.00
17383;BME280;8809;51.892;8.384;2023-04-27T03:05:48;101048.50;;;4.90;100.00
17383;BME280;8809;51.892;8.384;2023-04-27T03:08:16;101051.66;;;4.85;100.00
17383;BME280;8809;51.892;8.384;2023-04-27T03:10:44;101051.44;;;4.82;100.00
17383;BME280;8809;51.892;8.384;2023-04-27T03:13:11;101040.88;;;4.79;100.00
17383;BME280;8809;51.892;8.384;2023-04-27T03:15:39;101040.66;;;4.76;100.00
17383;BME280;8809;51.892;8.384;2023-04-27T03:18:06;101039.53;;;4.73;100.00
17383;BME280;8809;51.892;8.384;2023-04-27T03:20:33;101039.22;;;4.68;100.00
17383;BME280;8809;51.892;8.384;2023-04-27T03:23:01;101033.72;;;4.64;100.00
17383;BME280;8809;51.892;8.384;2023-04-27T03:25:29;101018.78;;;4.60;100.00
17383;BME280;8809;51.892;8.384;2023-04-27T03:27:56;101028.78;;;4.55;100.00
17383;BME280;8809;51.892;8.384;2023-04-27T03:30:23;101029.38;;;4.51;100.00
17383;BME280;8809;51.892;8.384;2023-04-27T03:32:51;101023.97;;;4.48;100.00
17383;BME280;8809;51.892;8.384;2023-04-27T03:35:18;101040.91;;;4.44;100.00
17383;BME280;8809;51.892;8.384;2023-04-27T03:37:45;101032.84;;;4.40;100.00
17383;BME280;8809;51.892;8.384;2023-04-27T03:40:15;101031.72;;;4.36;100.00
17383;BME280;8809;51.892;8.384;2023-04-27T03:42:44;101034.88;;;4.32;100.00
17383;BME280;8809;51.892;8.384;2023-04-27T03:45:11;101031.94;;;4.28;100.00
17383;BME280;8809;51.892;8.384;2023-04-27T03:47:38;101029.13;;;4.25;100.00
17383;BME280;8809;51.892;8.384;2023-04-27T03:50:06;101034.75;;;4.19;100.00
17383;BME280;8809;51.892;8.384;2023-04-27T03:52:33;101044.06;;;4.17;100.00
17383;BME280;8809;51.892;8.384;2023-04-27T03:55:00;101032.59;;;4.14;100.00
17383;BME280;8809;51.892;8.384;2023-04-27T03:57:27;101034.88;;;4.09;100.00
17383;BME280;8809;51.892;8.384;2023-04-27T03:59:56;101044.97;;;4.06;100.00
17383;BME280;8809;51.892;8.384;2023-04-27T04:02:23;101039.47;;;4.01;100.00
17383;BME280;8809;51.892;8.384;2023-04-27T04:04:50;101035.75;;;3.98;100.00
17383;BME280;8809;51.892;8.384;2023-04-27T04:07:17;101038.91;;;3.94;100.00
17383;BME280;8809;51.892;8.384;2023-04-27T04:09:44;101032.59;;;3.90;100.00
17383;BME280;8809;51.892;8.384;2023-04-27T04:12:11;101045.28;;;3.87;100.00
17383;BME280;8809;51.892;8.384;2023-04-27T04:14:38;101046.84;;;3.85;100.00
17383;BME280;8809;51.892;8.384;2023-04-27T04:17:09;101042.25;;;3.81;100.00
17383;BME280;8809;51.892;8.384;2023-04-27T04:19:36;101053.22;;;3.79;100.00
17383;BME280;8809;51.892;8.384;2023-04-27T04:22:03;101063.31;;;3.76;100.00
17383;BME280;8809;51.892;8.384;2023-04-27T04:24:30;101063.09;;;3.72;100.00
17383;BME280;8809;51.892;8.384;2023-04-27T04:26:57;101061.94;;;3.69;100.00
17383;BME280;8809;51.892;8.384;2023-04-27T04:29:24;101064.28;;;3.66;100.00
17383;BME280;8809;51.892;8.384;2023-04-27T04:31:51;101068.56;;;3.65;100.00
17383;BME280;8809;51.892;8.384;2023-04-27T04:34:20;101075.19;;;3.62;100.00
17383;BME280;8809;51.892;8.384;2023-04-27T04:36:48;101074.94;;;3.59;100.00
17383;BME280;8809;51.892;8.384;2023-04-27T04:39:17;101081.66;;;3.57;100.00
17383;BME280;8809;51.892;8.384;2023-04-27T04:41:45;101078.84;;;3.54;100.00
17383;BME280;8809;51.892;8.384;2023-04-27T04:44:13;101083.00;;;3.52;100.00
17383;BME280;8809;51.892;8.384;2023-04-27T04:46:42;101078.50;;;3.49;100.00
17383;BME280;8809;51.892;8.384;2023-04-27T04:49:09;101069.72;;;3.47;100.00
17383;BME280;8809;51.892;8.384;2023-04-27T04:51:41;101080.81;;;3.46;100.00
17383;BME280;8809;51.892;8.384;2023-04-27T04:54:08;101080.72;;;3.45;100.00
17383;BME280;8809;51.892;8.384;2023-04-27T04:56:36;101083.19;;;3.43;100.00
17383;BME280;8809;51.892;8.384;2023-04-27T04:59:05;101077.00;;;3.41;100.00
17383;BME280;8809;51.892;8.384;2023-04-27T05:01:32;101081.25;;;3.41;100.00
17383;BME280;8809;51.892;8.384;2023-04-27T05:03:59;101079.47;;;3.40;100.00
17383;BME280;8809;51.892;8.384;2023-04-27T05:06:26;101095.72;;;3.39;100.00
17383;BME280;8809;51.892;8.384;2023-04-27T05:08:55;101094.16;;;3.41;100.00
17383;BME280;8809;51.892;8.384;2023-04-27T05:11:22;101089.78;;;3.40;100.00
17383;BME280;8809;51.892;8.384;2023-04-27T05:13:49;101089.78;;;3.40;100.00
17383;BME280;8809;51.892;8.384;2023-04-27T05:16:17;101094.16;;;3.41;100.00
17383;BME280;8809;51.892;8.384;2023-04-27T05:18:44;101089.91;;;3.41;100.00
17383;BME280;8809;51.892;8.384;2023-04-27T05:21:14;101094.28;;;3.42;100.00
17383;BME280;8809;51.892;8.384;2023-04-27T05:23:42;101096.97;;;3.44;100.00
17383;BME280;8809;51.892;8.384;2023-04-27T05:26:14;101103.16;;;3.46;100.00
17383;BME280;8809;51.892;8.384;2023-04-27T05:28:41;101107.50;;;3.47;100.00
17383;BME280;8809;51.892;8.384;2023-04-27T05:31:08;101105.06;;;3.48;100.00
17383;BME280;8809;51.892;8.384;2023-04-27T05:33:36;101104.28;;;3.49;100.00
17383;BME280;8809;51.892;8.384;2023-04-27T05:36:03;101105.31;;;3.51;100.00
17383;BME280;8809;51.892;8.384;2023-04-27T05:38:33;101112.38;;;3.54;100.00
17383;BME280;8809;51.892;8.384;2023-04-27T05:41:04;101108.22;;;3.56;100.00
17383;BME280;8809;51.892;8.384;2023-04-27T05:43:33;101113.63;;;3.59;100.00
17383;BME280;8809;51.892;8.384;2023-04-27T05:46:02;101114.66;;;3.61;100.00
17383;BME280;8809;51.892;8.384;2023-04-27T05:48:30;101117.47;;;3.64;100.00
17383;BME280;8809;51.892;8.384;2023-04-27T05:51:00;101117.81;;;3.68;100.00
17383;BME280;8809;51.892;8.384;2023-04-27T05:53:27;101118.19;;;3.73;100.00
17383;BME280;8809;51.892;8.384;2023-04-27T05:55:55;101122.78;;;3.77;100.00
17383;BME280;8809;51.892;8.384;2023-04-27T05:58:24;101124.03;;;3.82;100.00
17383;BME280;8809;51.892;8.384;2023-04-27T06:00:52;101127.75;;;3.86;100.00
17383;BME280;8809;51.892;8.384;2023-04-27T06:03:20;101128.88;;;3.89;100.00
17383;BME280;8809;51.892;8.384;2023-04-27T06:05:52;101123.28;;;3.95;100.00
17383;BME280;8809;51.892;8.384;2023-04-27T06:08:20;101117.44;;;3.97;100.00
17383;BME280;8809;51.892;8.384;2023-04-27T06:10:47;101115.22;;;4.02;100.00
17383;BME280;8809;51.892;8.384;2023-04-27T06:13:14;101124.09;;;4.05;100.00
17383;BME280;8809;51.892;8.384;2023-04-27T06:15:42;101127.16;;;4.12;100.00
17383;BME280;8809;51.892;8.384;2023-04-27T06:18:11;101123.22;;;4.17;100.00
17383;BME280;8809;51.892;8.384;2023-04-27T06:20:38;101123.56;;;4.21;100.00
17383;BME280;8809;51.892;8.384;2023-04-27T06:23:06;101125.59;;;4.25;100.00
17383;BME280;8809;51.892;8.384;2023-04-27T06:25:34;101118.97;;;4.29;100.00
17383;BME280;8809;51.892;8.384;2023-04-27T06:28:04;101116.84;;;4.35;100.00
17383;BME280;8809;51.892;8.384;2023-04-27T06:30:31;101125.84;;;4.40;100.00
17383;BME280;8809;51.892;8.384;2023-04-27T06:33:00;101126.28;;;4.46;100.00
17383;BME280;8809;51.892;8.384;2023-04-27T06:35:32;101132.78;;;4.53;100.00
17383;BME280;8809;51.892;8.384;2023-04-27T06:38:01;101134.81;;;4.57;100.00
17383;BME280;8809;51.892;8.384;2023-04-27T06:40:28;101132.81;;;4.64;100.00
17383;BME280;8809;51.892;8.384;2023-04-27T06:42:58;101137.06;;;4.75;100.00
17383;BME280;8809;51.892;8.384;2023-04-27T06:45:28;101131.91;;;4.87;100.00
17383;BME280;8809;51.892;8.384;2023-04-27T06:47:58;101136.84;;;4.96;100.00
17383;BME280;8809;51.892;8.384;2023-04-27T06:50:27;101139.06;;;5.03;100.00
17383;BME280;8809;51.892;8.384;2023-04-27T06:52:59;101137.72;;;5.08;100.00
17383;BME280;8809;51.892;8.384;2023-04-27T06:55:30;101140.63;;;5.12;100.00
17383;BME280;8809;51.892;8.384;2023-04-27T06:57:57;101144.34;;;5.16;100.00
17383;BME280;8809;51.892;8.384;2023-04-27T07:00:25;101147.16;;;5.19;100.00
17383;BME280;8809;51.892;8.384;2023-04-27T07:02:58;101145.00;;;5.25;100.00
17383;BME280;8809;51.892;8.384;2023-04-27T07:05:26;101145.41;;;5.31;100.00
17383;BME280;8809;51.892;8.384;2023-04-27T07:07:53;101151.03;;;5.37;100.00
17383;BME280;8809;51.892;8.384;2023-04-27T07:10:22;101143.47;;;5.40;100.00
17383;BME280;8809;51.892;8.384;2023-04-27T07:12:52;101135.44;;;5.49;100.00
17383;BME280;8809;51.892;8.384;2023-04-27T07:15:20;101130.91;;;5.58;100.00
17383;BME280;8809;51.892;8.384;2023-04-27T07:17:50;101133.06;;;5.64;100.00
17383;BME280;8809;51.892;8.384;2023-04-27T07:20:18;101141.44;;;5.73;100.00
17383;BME280;8809;51.892;8.384;2023-04-27T07:22:46;101145.56;;;5.82;100.00
17383;BME280;8809;51.892;8.384;2023-04-27T07:25:16;101137.00;;;5.83;100.00
17383;BME280;8809;51.892;8.384;2023-04-27T07:27:45;101133.19;;;5.90;100.00
17383;BME280;8809;51.892;8.384;2023-04-27T07:30:12;101131.59;;;5.92;100.00
17383;BME280;8809;51.892;8.384;2023-04-27T07:32:43;101129.53;;;6.00;100.00
17383;BME280;8809;51.892;8.384;2023-04-27T07:35:11;101136.91;;;6.07;100.00
17383;BME280;8809;51.892;8.384;2023-04-27T07:37:39;101133.06;;;6.13;100.00
17383;BME280;8809;51.892;8.384;2023-04-27T07:40:09;101126.47;;;6.18;100.00
17383;BME280;8809;51.892;8.384;2023-04-27T07:42:41;101132.97;;;6.25;100.00
17383;BME280;8809;51.892;8.384;2023-04-27T07:45:09;101130.81;;;6.31;100.00
17383;BME280;8809;51.892;8.384;2023-04-27T07:47:37;101126.69;;;6.34;100.00
17383;BME280;8809;51.892;8.384;2023-04-27T07:50:06;101123.53;;;6.39;100.00
17383;BME280;8809;51.892;8.384;2023-04-27T07:52:33;101124.94;;;6.47;100.00
17383;BME280;8809;51.892;8.384;2023-04-27T07:55:02;101121.88;;;6.52;100.00
17383;BME280;8809;51.892;8.384;2023-04-27T07:57:29;101117.97;;;6.59;100.00
17383;BME280;8809;51.892;8.384;2023-04-27T07:59:57;101115.97;;;6.68;100.00
17383;BME280;8809;51.892;8.384;2023-04-27T08:02:26;101112.97;;;6.75;100.00
17383;BME280;8809;51.892;8.384;2023-04-27T08:04:58;101113.28;;;6.80;100.00
17383;BME280;8809;51.892;8.384;2023-04-27T08:07:27;101118.97;;;6.87;100.00
17383;BME280;8809;51.892;8.384;2023-04-27T08:09:54;101119.28;;;6.92;100.00
17383;BME280;8809;51.892;8.384;2023-04-27T08:12:23;101111.88;;;6.98;100.00
17383;BME280;8809;51.892;8.384;2023-04-27T08:14:54;101121.72;;;7.03;100.00
17383;BME280;8809;51.892;8.384;2023-04-27T08:17:21;101125.69;;;7.12;100.00
17383;BME280;8809;51.892;8.384;2023-04-27T08:19:52;101124.69;;;7.23;100.00
17383;BME280;8809;51.892;8.384;2023-04-27T08:22:19;101119.16;;;7.31;100.00
17383;BME280;8809;51.892;8.384;2023-04-27T08:24:47;101113.69;;;7.40;100.00
17383;BME280;8809;51.892;8.384;2023-04-27T08:27:14;101112.44;;;7.48;100.00
17383;BME280;8809;51.892;8.384;2023-04-27T08:29:48;101119.09;;;7.58;100.00
17383;BME280;8809;51.892;8.384;2023-04-27T08:32:15;101113.38;;;7.63;100.00
17383;BME280;8809;51.892;8.384;2023-04-27T08:34:42;101125.94;;;7.70;100.00
17383;BME280;8809;51.892;8.384;2023-04-27T08:37:15;101121.28;;;7.79;100.00
17383;BME280;8809;51.892;8.384;2023-04-27T08:39:45;101123.28;;;7.83;100.00
17383;BME280;8809;51.892;8.384;2023-04-27T08:42:13;101118.84;;;7.96;100.00
17383;BME280;8809;51.892;8.384;2023-04-27T08:44:42;101122.78;;;8.04;100.00
17383;BME280;8809;51.892;8.384;2023-04-27T08:47:10;101123.34;;;8.13;100.00
17383;BME280;8809;51.892;8.384;2023-04-27T08:49:38;101109.38;;;8.26;100.00
17383;BME280;8809;51.892;8.384;2023-04-27T08:52:09;101110.28;;;8.41;100.00
17383;BME280;8809;51.892;8.384;2023-04-27T08:54:39;101113.50;;;8.51;100.00
17383;BME280;8809;51.892;8.384;2023-04-27T08:57:10;101110.53;;;8.60;100.00
17383;BME280;8809;51.892;8.384;2023-04-27T08:59:39;101110.25;;;8.70;100.00
17383;BME280;8809;51.892;8.384;2023-04-27T09:02:17;101113.47;;;8.81;94.59
17383;BME280;8809;51.892;8.384;2023-04-27T09:04:45;101119.00;;;8.87;92.73
17383;BME280;8809;51.892;8.384;2023-04-27T09:07:14;101120.31;;;8.95;93.13
17383;BME280;8809;51.892;8.384;2023-04-27T09:09:44;101124.34;;;9.05;96.25
17383;BME280;8809;51.892;8.384;2023-04-27T09:12:14;101128.13;;;9.10;83.34
17383;BME280;8809;51.892;8.384;2023-04-27T09:14:42;101116.50;;;9.19;80.95
17383;BME280;8809;51.892;8.384;2023-04-27T09:17:12;101122.72;;;9.38;88.30
17383;BME280;8809;51.892;8.384;2023-04-27T09:19:39;101116.88;;;9.58;87.64
17383;BME280;8809;51.892;8.384;2023-04-27T09:22:08;101114.53;;;9.79;87.77
17383;BME280;8809;51.892;8.384;2023-04-27T09:24:36;101111.72;;;10.08;90.47
17383;BME280;8809;51.892;8.384;2023-04-27T09:27:05;101104.28;;;10.32;100.00
17383;BME280;8809;51.892;8.384;2023-04-27T09:29:36;101109.22;;;10.61;100.00
17383;BME280;8809;51.892;8.384;2023-04-27T09:32:14;101111.19;;;10.83;93.37
17383;BME280;8809;51.892;8.384;2023-04-27T09:34:42;101118.09;;;10.83;78.46
17383;BME280;8809;51.892;8.384;2023-04-27T09:37:09;101116.66;;;11.07;80.61
17383;BME280;8809;51.892;8.384;2023-04-27T09:39:37;101114.78;;;11.22;80.33
17383;BME280;8809;51.892;8.384;2023-04-27T09:42:06;101119.63;;;11.32;77.98
17383;BME280;8809;51.892;8.384;2023-04-27T09:44:34;101121.28;;;11.49;79.64
17383;BME280;8809;51.892;8.384;2023-04-27T09:47:03;101112.91;;;11.57;76.00
17383;BME280;8809;51.892;8.384;2023-04-27T09:49:33;101121.03;;;11.63;71.92
17383;BME280;8809;51.892;8.384;2023-04-27T09:52:00;101105.63;;;11.49;66.33
17383;BME280;8809;51.892;8.384;2023-04-27T09:54:29;101115.59;;;11.58;69.91
17383;BME280;8809;51.892;8.384;2023-04-27T09:57:19;101103.31;;;11.75;79.26
17383;BME280;8809;51.892;8.384;2023-04-27T10:00:01;101108.00;;;11.82;72.53
17383;BME280;8809;51.892;8.384;2023-04-27T10:02:40;101098.97;;;11.95;88.21
17383;BME280;8809;51.892;8.384;2023-04-27T10:05:32;101100.56;;;12.10;97.70
17383;BME280;8809;51.892;8.384;2023-04-27T10:08:02;101086.41;;;12.26;100.00
17383;BME280;8809;51.892;8.384;2023-04-27T10:10:41;101087.34;;;12.28;95.28
17383;BME280;8809;51.892;8.384;2023-04-27T10:13:19;101092.53;;;12.47;98.36
17383;BME280;8809;51.892;8.384;2023-04-27T10:15:48;101083.56;;;12.63;89.78
17383;BME280;8809;51.892;8.384;2023-04-27T10:18:26;101072.06;;;12.80;90.68
17383;BME280;8809;51.892;8.384;2023-04-27T10:20:55;101076.00;;;12.91;91.57
17383;BME280;8809;51.892;8.384;2023-04-27T10:23:25;101076.72;;;13.10;88.81
17383;BME280;8809;51.892;8.384;2023-04-27T10:25:53;101073.03;;;13.27;88.47
17383;BME280;8809;51.892;8.384;2023-04-27T10:28:23;101070.97;;;13.41;85.52
17383;BME280;8809;51.892;8.384;2023-04-27T10:30:50;101069.56;;;13.50;80.63
17383;BME280;8809;51.892;8.384;2023-04-27T10:33:22;101074.59;;;13.44;73.58
17383;BME280;8809;51.892;8.384;2023-04-27T10:35:55;101081.91;;;13.53;72.74
17383;BME280;8809;51.892;8.384;2023-04-27T10:38:30;101063.53;;;13.77;83.27
17383;BME280;8809;51.892;8.384;2023-04-27T10:40:59;101060.41;;;13.87;79.15
17383;BME280;8809;51.892;8.384;2023-04-27T10:43:37;101060.34;;;13.85;73.96
17383;BME280;8809;51.892;8.384;2023-04-27T10:46:08;101064.09;;;13.92;68.22
17383;BME280;8809;51.892;8.384;2023-04-27T10:48:38;101066.16;;;14.00;67.59
17383;BME280;8809;51.892;8.384;2023-04-27T10:51:06;101072.69;;;13.88;61.23
17383;BME280;8809;51.892;8.384;2023-04-27T10:53:35;101065.84;;;13.91;68.18
17383;BME280;8809;51.892;8.384;2023-04-27T10:56:06;101059.66;;;14.15;76.85
17383;BME280;8809;51.892;8.384;2023-04-27T10:58:38;101055.13;;;14.36;80.52
17383;BME280;8809;51.892;8.384;2023-04-27T11:01:05;101057.59;;;14.57;81.11
17383;BME280;8809;51.892;8.384;2023-04-27T11:03:33;101059.09;;;14.75;80.13
17383;BME280;8809;51.892;8.384;2023-04-27T11:06:02;101052.56;;;14.90;76.94
17383;BME280;8809;51.892;8.384;2023-04-27T11:08:31;101054.56;;;14.98;73.74
17383;BME280;8809;51.892;8.384;2023-04-27T11:11:01;101051.06;;;14.98;68.58
17383;BME280;8809;51.892;8.384;2023-04-27T11:13:30;101046.41;;;14.89;61.36
17383;BME280;8809;51.892;8.384;2023-04-27T11:15:59;101047.16;;;14.85;58.22
17383;BME280;8809;51.892;8.384;2023-04-27T11:18:29;101036.13;;;14.97;67.10
17383;BME280;8809;51.892;8.384;2023-04-27T11:21:06;101042.28;;;14.97;60.60
17383;BME280;8809;51.892;8.384;2023-04-27T11:23:35;101034.28;;;14.94;61.87
17383;BME280;8809;51.892;8.384;2023-04-27T11:26:08;101036.78;;;14.90;56.57
17383;BME280;8809;51.892;8.384;2023-04-27T11:28:37;101036.72;;;14.61;47.67
17383;BME280;8809;51.892;8.384;2023-04-27T11:31:06;101036.00;;;14.65;52.88
17383;BME280;8809;51.892;8.384;2023-04-27T11:33:33;101037.38;;;14.54;48.46
17383;BME280;8809;51.892;8.384;2023-04-27T11:36:01;101031.44;;;14.34;49.22
17383;BME280;8809;51.892;8.384;2023-04-27T11:38:32;101027.34;;;14.41;53.54
17383;BME280;8809;51.892;8.384;2023-04-27T11:41:02;101024.97;;;14.48;52.79
17383;BME280;8809;51.892;8.384;2023-04-27T11:43:33;101020.53;;;14.74;63.36
17383;BME280;8809;51.892;8.384;2023-04-27T11:46:02;101031.56;;;14.91;55.79
17383;BME280;8809;51.892;8.384;2023-04-27T11:48:31;101032.09;;;15.08;55.30
17383;BME280;8809;51.892;8.384;2023-04-27T11:50:58;101023.66;;;15.18;58.92
17383;BME280;8809;51.892;8.384;2023-04-27T11:53:32;101023.66;;;15.49;64.81
17383;BME280;8809;51.892;8.384;2023-04-27T11:56:03;101033.06;;;15.41;51.13
17383;BME280;8809;51.892;8.384;2023-04-27T11:58:32;101029.00;;;15.52;58.06
17383;BME280;8809;51.892;8.384;2023-04-27T12:01:02;101038.88;;;15.59;53.75
17383;BME280;8809;51.892;8.384;2023-04-27T12:03:31;101034.53;;;15.32;49.42
17383;BME280;8809;51.892;8.384;2023-04-27T12:05:59;101029.34;;;15.63;63.64
17383;BME280;8809;51.892;8.384;2023-04-27T12:08:26;101023.06;;;15.89;68.69
17383;BME280;8809;51.892;8.384;2023-04-27T12:10:54;101027.75;;;16.01;59.25
17383;BME280;8809;51.892;8.384;2023-04-27T12:13:21;101034.97;;;15.75;50.24
17383;BME280;8809;51.892;8.384;2023-04-27T12:15:49;101033.16;;;15.44;43.70
17383;BME280;8809;51.892;8.384;2023-04-27T12:18:16;101027.03;;;15.44;48.98
17383;BME280;8809;51.892;8.384;2023-04-27T12:20:45;101027.59;;;15.34;46.14
17383;BME280;8809;51.892;8.384;2023-04-27T12:23:12;101020.44;;;15.58;52.58
17383;BME280;8809;51.892;8.384;2023-04-27T12:25:40;101012.00;;;15.70;57.65
17383;BME280;8809;51.892;8.384;2023-04-27T12:28:08;101012.72;;;15.97;60.80
17383;BME280;8809;51.892;8.384;2023-04-27T12:30:37;101017.78;;;15.89;50.34
17383;BME280;8809;51.892;8.384;2023-04-27T12:33:04;101016.03;;;15.29;40.18
17383;BME280;8809;51.892;8.384;2023-04-27T12:35:35;101016.28;;;15.36;43.40
17383;BME280;8809;51.892;8.384;2023-04-27T12:38:04;101017.13;;;15.05;40.94
17383;BME280;8809;51.892;8.384;2023-04-27T12:40:32;101011.63;;;14.98;41.13
17383;BME280;8809;51.892;8.384;2023-04-27T12:42:59;101013.78;;;14.82;40.80
17383;BME280;8809;51.892;8.384;2023-04-27T12:45:27;101009.81;;;14.95;46.78
17383;BME280;8809;51.892;8.384;2023-04-27T12:47:54;101005.25;;;15.19;51.11
17383;BME280;8809;51.892;8.384;2023-04-27T12:50:22;101004.03;;;15.37;49.36
17383;BME280;8809;51.892;8.384;2023-04-27T12:52:49;101008.38;;;15.65;54.40
17383;BME280;8809;51.892;8.384;2023-04-27T12:55:18;101008.72;;;15.78;48.69
17383;BME280;8809;51.892;8.384;2023-04-27T12:57:46;101004.13;;;16.03;51.76
17383;BME280;8809;51.892;8.384;2023-04-27T13:00:15;101010.59;;;16.17;51.97
17383;BME280;8809;51.892;8.384;2023-04-27T13:02:43;101001.34;;;16.31;53.99
17383;BME280;8809;51.892;8.384;2023-04-27T13:05:12;100999.00;;;16.09;45.06
17383;BME280;8809;51.892;8.384;2023-04-27T13:07:40;101008.97;;;15.87;38.18